Time;durP1;ratioP1;P1;durP2;ratioP2;P2;SDS_P1;SDS_P2;PMS_P1;PMS_P2;Temp;Humidity;BMP_temperature;BMP_pressure;BME280_temperature;BME280_humidity;BME280_pressure;Samples;Min_cycle;Max_cycle;Signal;HPM_P1;HPM_P2
2022/10/30 00:00:24;;;;;;;16.43;4.77;;;15.60;99.90;;;;;;5091110;28;20434;-80
2022/10/30 00:02:50;;;;;;;15.60;5.00;;;15.60;99.90;;;;;;5109525;28;20665;-79
2022/10/30 00:05:16;;;;;;;15.23;5.27;;;15.50;99.90;;;;;;5090475;28;20653;-79
2022/10/30 00:07:42;;;;;;;16.63;4.60;;;15.50;99.90;;;;;;5091033;28;20206;-79
2022/10/30 00:10:08;;;;;;;22.63;5.03;;;15.50;99.90;;;;;;5074237;28;20991;-79
2022/10/30 00:12:34;;;;;;;12.07;5.30;;;15.50;99.90;;;;;;5091384;28;20187;-79
2022/10/30 00:15:00;;;;;;;14.10;4.77;;;15.40;99.90;;;;;;5091097;28;20429;-79
2022/10/30 00:17:25;;;;;;;24.87;5.70;;;15.40;99.90;;;;;;5074239;28;20234;-79
2022/10/30 00:19:51;;;;;;;20.47;4.80;;;15.40;99.90;;;;;;5074250;28;20968;-80
2022/10/30 00:22:17;;;;;;;20.03;5.27;;;15.40;99.90;;;;;;5109241;28;20999;-79
2022/10/30 00:24:42;;;;;;;18.20;5.10;;;15.30;99.90;;;;;;5090660;28;20203;-79
2022/10/30 00:27:08;;;;;;;14.60;4.97;;;15.30;99.90;;;;;;5090644;28;20231;-79
2022/10/30 00:29:34;;;;;;;12.80;5.30;;;15.30;99.90;;;;;;5090777;28;20181;-81
2022/10/30 00:31:59;;;;;;;15.10;4.80;;;15.30;99.90;;;;;;5058345;28;20706;-79
2022/10/30 00:34:25;;;;;;;12.30;5.13;;;15.30;99.90;;;;;;5109710;28;20746;-79
2022/10/30 00:36:50;;;;;;;19.93;5.53;;;15.30;99.90;;;;;;5073998;28;20207;-80
2022/10/30 00:39:16;;;;;;;16.23;4.57;;;15.30;99.90;;;;;;5073973;28;20199;-80
2022/10/30 00:41:42;;;;;;;21.03;4.70;;;15.20;99.90;;;;;;5090712;28;20568;-79
2022/10/30 00:44:46;;;;;;;18.10;4.60;;;15.20;99.90;;;;;;5110006;28;20178;-78
2022/10/30 00:47:29;;;;;;;13.50;4.30;;;15.10;99.90;;;;;;5091048;28;20215;-78
2022/10/30 00:49:57;;;;;;;18.20;4.63;;;15.00;99.90;;;;;;5109173;28;20475;-77
2022/10/30 00:52:27;;;;;;;23.80;5.80;;;14.90;99.90;;;;;;5109096;28;21001;-78
2022/10/30 00:54:55;;;;;;;16.53;4.53;;;14.90;99.90;;;;;;5109293;28;20417;-78
2022/10/30 00:57:21;;;;;;;14.20;4.53;;;14.90;99.90;;;;;;5109257;28;20442;-79
2022/10/30 00:59:47;;;;;;;18.70;5.17;;;14.80;99.90;;;;;;5109205;28;20490;-79
2022/10/30 01:02:13;;;;;;;10.83;4.30;;;14.70;99.90;;;;;;5108958;28;20425;-78
2022/10/30 01:04:41;;;;;;;14.47;3.47;;;14.70;99.90;;;;;;5109007;28;20413;-79
2022/10/30 01:07:14;;;;;;;14.40;4.70;;;14.70;99.90;;;;;;5108914;28;20217;-79
2022/10/30 01:09:40;;;;;;;10.87;4.23;;;14.70;99.90;;;;;;5090581;28;20413;-80
2022/10/30 01:12:06;;;;;;;13.73;4.37;;;14.90;99.90;;;;;;5073501;28;20427;-79
2022/10/30 01:14:34;;;;;;;7.60;3.47;;;14.80;99.90;;;;;;5109287;28;20537;-79
2022/10/30 01:17:35;;;;;;;12.03;4.67;;;14.80;99.90;;;;;;5111475;28;20448;-78
2022/10/30 01:20:06;;;;;;;13.70;4.23;;;14.80;99.90;;;;;;5070978;28;20454;-78
2022/10/30 01:22:40;;;;;;;22.97;4.80;;;14.80;99.90;;;;;;5094210;28;20419;-79
2022/10/30 01:25:36;;;;;;;13.03;4.83;;;14.80;99.90;;;;;;5112700;28;20793;-78
2022/10/30 01:28:17;;;;;;;9.97;4.10;;;14.50;99.90;;;;;;5112777;28;20433;-78
2022/10/30 01:30:50;;;;;;;15.47;4.20;;;14.30;99.90;;;;;;5094018;28;20461;-81
2022/10/30 01:33:41;;;;;;;11.70;4.30;;;14.40;99.90;;;;;;5094174;28;20530;-80
2022/10/30 01:36:15;;;;;;;23.20;5.03;;;14.60;99.90;;;;;;5112622;28;20831;-80
2022/10/30 01:38:48;;;;;;;14.03;4.23;;;14.70;99.90;;;;;;5112496;28;20470;-80
2022/10/30 01:41:13;;;;;;;13.00;3.47;;;15.00;99.90;;;;;;5093903;28;20427;-81
2022/10/30 01:43:40;;;;;;;12.40;3.27;;;15.20;99.90;;;;;;5077261;28;20426;-80
2022/10/30 01:46:11;;;;;;;13.93;3.67;;;15.30;99.90;;;;;;5093564;28;20601;-79
2022/10/30 01:48:42;;;;;;;11.17;3.00;;;15.40;99.90;;;;;;5112180;28;20508;-80
2022/10/30 01:51:35;;;;;;;18.00;4.10;;;15.40;99.90;;;;;;5112082;28;20876;-80
2022/10/30 01:54:08;;;;;;;16.10;4.10;;;15.30;99.90;;;;;;5112204;28;20406;-81
2022/10/30 01:57:04;;;;;;;20.80;4.63;;;15.20;99.90;;;;;;5093779;28;20428;-80
2022/10/30 01:59:55;;;;;;;8.93;3.87;;;15.10;99.90;;;;;;5093541;28;20472;-79
2022/10/30 02:02:22;;;;;;;15.40;4.30;;;15.10;99.90;;;;;;5086774;28;20451;-80
2022/10/30 02:04:48;;;;;;;14.23;3.73;;;15.00;99.90;;;;;;5093495;28;20443;-79
2022/10/30 02:07:14;;;;;;;11.93;3.50;;;14.90;99.90;;;;;;5111697;28;20429;-79
2022/10/30 02:09:40;;;;;;;16.37;4.00;;;14.90;99.90;;;;;;5059766;28;20435;-79
2022/10/30 02:12:07;;;;;;;18.77;3.87;;;14.90;99.90;;;;;;5093104;28;20816;-80
2022/10/30 02:14:37;;;;;;;16.13;3.77;;;15.00;99.90;;;;;;5111570;28;20411;-80
2022/10/30 02:17:05;;;;;;;8.83;2.90;;;15.00;99.90;;;;;;5093580;28;20542;-79
2022/10/30 02:19:31;;;;;;;6.90;2.87;;;15.10;99.90;;;;;;5111571;28;21284;-80
2022/10/30 02:21:57;;;;;;;3.60;2.40;;;15.00;99.90;;;;;;5059729;28;20481;-80
2022/10/30 02:24:22;;;;;;;11.40;2.73;;;14.80;99.90;;;;;;5111725;28;20687;-79
2022/10/30 02:26:48;;;;;;;8.20;3.43;;;14.90;99.90;;;;;;5093945;28;20261;-81
2022/10/30 02:29:14;;;;;;;11.30;3.07;;;14.90;99.90;;;;;;5095013;28;20194;-80
2022/10/30 02:31:39;;;;;;;13.43;2.90;;;14.80;99.90;;;;;;5100373;28;20215;-78
2022/10/30 02:34:05;;;;;;;8.20;3.17;;;14.90;99.90;;;;;;5138051;27;20182;-78
2022/10/30 02:36:30;;;;;;;7.23;3.23;;;14.80;99.90;;;;;;5103676;28;20183;-79
2022/10/30 02:38:56;;;;;;;13.90;3.33;;;14.80;99.90;;;;;;5120949;27;20178;-77
2022/10/30 02:41:22;;;;;;;10.17;3.10;;;14.70;99.90;;;;;;5067866;28;20548;-80
2022/10/30 02:43:51;;;;;;;13.50;3.97;;;14.60;99.90;;;;;;5113608;28;20214;-81
2022/10/30 02:46:16;;;;;;;16.57;3.80;;;14.70;99.90;;;;;;5112966;28;20459;-81
2022/10/30 02:48:42;;;;;;;13.27;4.00;;;14.50;99.90;;;;;;5094919;28;20493;-81
2022/10/30 02:51:08;;;;;;;11.53;3.30;;;14.50;99.90;;;;;;5077955;28;20271;-79
2022/10/30 02:53:34;;;;;;;11.07;2.83;;;14.50;99.90;;;;;;5077687;28;20206;-80
2022/10/30 02:56:13;;;;;;;13.57;3.70;;;14.40;99.90;;;;;;5093710;28;20287;-79
2022/10/30 02:58:39;;;;;;;15.10;3.23;;;14.40;99.90;;;;;;5093147;28;20450;-77
2022/10/30 03:01:11;;;;;;;7.30;2.70;;;14.40;99.90;;;;;;5110989;28;20522;-78
2022/10/30 03:03:37;;;;;;;16.80;2.80;;;14.40;99.90;;;;;;5111396;28;20772;-77
2022/10/30 03:06:05;;;;;;;17.33;4.20;;;14.40;99.90;;;;;;5092592;28;20428;-78
2022/10/30 03:08:31;;;;;;;19.23;3.70;;;14.40;99.90;;;;;;5111539;28;20502;-79
2022/10/30 03:11:09;;;;;;;15.27;3.30;;;14.50;99.90;;;;;;5092774;28;20919;-79
2022/10/30 03:13:35;;;;;;;15.07;3.03;;;14.50;99.90;;;;;;5093053;28;20169;-80
2022/10/30 03:16:04;;;;;;;8.00;3.40;;;14.50;99.90;;;;;;5092666;28;20782;-79
2022/10/30 03:18:29;;;;;;;16.27;2.80;;;14.50;99.90;;;;;;5111006;28;20838;-79
2022/10/30 03:21:00;;;;;;;14.00;3.33;;;14.50;99.90;;;;;;5111041;28;20451;-79
2022/10/30 03:23:26;;;;;;;23.23;4.63;;;14.40;99.90;;;;;;5075899;28;20181;-78
2022/10/30 03:25:57;;;;;;;12.30;3.73;;;14.30;99.90;;;;;;5111058;28;20423;-78
2022/10/30 03:28:25;;;;;;;7.80;2.90;;;14.30;99.90;;;;;;5110925;28;20468;-79
2022/10/30 03:30:56;;;;;;;15.40;4.10;;;14.30;99.90;;;;;;5110632;28;20468;-81
2022/10/30 03:33:22;;;;;;;15.67;3.80;;;14.40;99.90;;;;;;5092929;28;20427;-81
2022/10/30 03:35:47;;;;;;;10.10;4.13;;;14.30;99.90;;;;;;5110114;28;20424;-81
2022/10/30 03:38:13;;;;;;;9.17;2.80;;;14.30;99.90;;;;;;5110011;28;20284;-81
2022/10/30 03:40:39;;;;;;;18.37;4.03;;;14.30;99.90;;;;;;5109294;28;20190;-81
2022/10/30 03:43:05;;;;;;;12.13;3.53;;;14.40;99.90;;;;;;5110197;28;20178;-81
2022/10/30 03:45:32;;;;;;;9.00;3.40;;;14.40;99.90;;;;;;5091562;28;20423;-81
2022/10/30 03:48:02;;;;;;;17.30;4.07;;;14.40;99.90;;;;;;5091790;28;21327;-82
2022/10/30 03:50:28;;;;;;;8.53;3.13;;;14.30;99.90;;;;;;5109935;28;20471;-81
2022/10/30 03:52:55;;;;;;;27.13;4.13;;;14.20;99.90;;;;;;5074768;28;20424;-81
2022/10/30 03:55:21;;;;;;;10.40;3.43;;;14.30;99.90;;;;;;5057853;28;20431;-81
2022/10/30 03:57:46;;;;;;;15.10;3.60;;;14.20;99.90;;;;;;5091831;28;20448;-83
2022/10/30 04:00:13;;;;;;;13.53;3.53;;;14.20;99.90;;;;;;5058383;28;21266;-81
2022/10/30 04:02:43;;;;;;;13.13;4.23;;;14.10;99.90;;;;;;5091887;28;20199;-81
2022/10/30 04:05:08;;;;;;;13.27;3.53;;;14.10;99.90;;;;;;5091909;28;20508;-80
2022/10/30 04:07:34;;;;;;;16.20;3.83;;;14.10;99.90;;;;;;5092149;28;20521;-81
2022/10/30 04:09:59;;;;;;;12.03;3.83;;;14.10;99.90;;;;;;5074806;28;20678;-81
2022/10/30 04:12:25;;;;;;;14.07;3.37;;;14.10;99.90;;;;;;5075055;28;20647;-79
2022/10/30 04:14:52;;;;;;;13.83;4.97;;;14.10;99.90;;;;;;5075176;28;20181;-78
2022/10/30 04:17:18;;;;;;;12.50;4.23;;;13.90;99.90;;;;;;5075350;28;20600;-78
2022/10/30 04:19:43;;;;;;;24.53;4.33;;;14.00;99.90;;;;;;5110220;28;20430;-78
2022/10/30 04:22:09;;;;;;;8.77;3.27;;;14.00;99.90;;;;;;5091684;28;20289;-79
2022/10/30 04:24:35;;;;;;;14.83;4.27;;;14.00;99.90;;;;;;5075039;28;20193;-81
2022/10/30 04:27:00;;;;;;;7.63;3.60;;;14.00;99.90;;;;;;5058437;28;20202;-80
2022/10/30 04:29:26;;;;;;;17.67;3.60;;;13.90;99.90;;;;;;5111329;28;20182;-81
2022/10/30 04:31:51;;;;;;;10.80;2.80;;;13.90;99.90;;;;;;5058503;28;20222;-80
2022/10/30 04:34:17;;;;;;;13.60;3.23;;;13.80;99.90;;;;;;5074948;28;20190;-81
2022/10/30 04:36:42;;;;;;;23.83;3.40;;;13.80;99.90;;;;;;5091948;28;20673;-80
2022/10/30 04:39:08;;;;;;;11.23;3.50;;;13.80;99.90;;;;;;5075321;28;20186;-80
2022/10/30 04:41:34;;;;;;;12.10;3.43;;;13.70;99.90;;;;;;5091758;28;20190;-80
2022/10/30 04:44:00;;;;;;;8.60;3.10;;;13.60;99.90;;;;;;5074986;28;21010;-79
2022/10/30 04:46:25;;;;;;;13.57;4.70;;;13.70;99.90;;;;;;5074948;28;20213;-78
2022/10/30 04:48:52;;;;;;;14.23;3.70;;;13.70;99.90;;;;;;5091484;28;20616;-77
2022/10/30 04:51:17;;;;;;;19.83;3.40;;;13.70;99.90;;;;;;5059717;28;20218;-76
2022/10/30 04:53:43;;;;;;;12.10;3.70;;;13.70;99.90;;;;;;5113844;28;20531;-76
2022/10/30 04:56:09;;;;;;;8.10;3.57;;;13.60;99.90;;;;;;5095305;28;20182;-75
2022/10/30 04:58:35;;;;;;;8.77;3.40;;;13.60;99.90;;;;;;5113379;28;20182;-75
2022/10/30 05:01:01;;;;;;;17.57;3.43;;;13.70;99.90;;;;;;5095530;28;20443;-79
2022/10/30 05:03:27;;;;;;;9.33;3.27;;;13.60;99.90;;;;;;5095679;28;20186;-78
2022/10/30 05:06:01;;;;;;;11.13;4.07;;;13.50;99.90;;;;;;5114122;28;20927;-78
2022/10/30 05:08:28;;;;;;;15.43;3.53;;;13.30;99.90;;;;;;5095254;28;20185;-76
2022/10/30 05:10:54;;;;;;;11.77;4.10;;;13.30;99.90;;;;;;5113433;28;20566;-76
2022/10/30 05:13:20;;;;;;;21.20;3.50;;;13.30;99.90;;;;;;5113346;28;20765;-76
2022/10/30 05:15:45;;;;;;;13.30;3.40;;;13.30;99.90;;;;;;5113318;28;20422;-76
2022/10/30 05:18:11;;;;;;;26.00;5.57;;;13.20;99.90;;;;;;5113120;28;20204;-76
2022/10/30 05:20:37;;;;;;;20.10;3.90;;;13.30;99.90;;;;;;5094726;28;20193;-76
2022/10/30 05:23:03;;;;;;;15.17;3.57;;;13.30;99.90;;;;;;5094963;28;20194;-78
2022/10/30 05:25:28;;;;;;;20.63;3.50;;;13.40;99.90;;;;;;5113575;28;20674;-78
2022/10/30 05:28:05;;;;;;;8.70;3.33;;;13.30;99.90;;;;;;5094726;28;20454;-77
2022/10/30 05:30:34;;;;;;;10.37;4.07;;;13.40;99.90;;;;;;5113420;28;20209;-76
2022/10/30 05:33:02;;;;;;;15.43;3.70;;;13.40;99.90;;;;;;5094861;28;20502;-77
2022/10/30 05:35:28;;;;;;;15.10;4.00;;;13.50;99.90;;;;;;5112556;28;20432;-77
2022/10/30 05:37:54;;;;;;;9.07;3.53;;;13.30;99.90;;;;;;5112958;28;20458;-77
2022/10/30 05:40:20;;;;;;;12.43;3.40;;;13.40;99.90;;;;;;5112945;28;20952;-77
2022/10/30 05:42:49;;;;;;;15.50;3.60;;;13.50;99.90;;;;;;5112556;28;20189;-76
2022/10/30 05:45:15;;;;;;;17.37;3.70;;;13.40;99.90;;;;;;5112631;28;20193;-76
2022/10/30 05:47:41;;;;;;;14.07;3.27;;;13.40;99.90;;;;;;5094168;28;20543;-78
2022/10/30 05:50:07;;;;;;;10.47;3.60;;;13.30;99.90;;;;;;5112665;28;20928;-79
2022/10/30 05:52:33;;;;;;;14.93;3.70;;;13.30;99.90;;;;;;5077447;28;20181;-79
2022/10/30 05:54:59;;;;;;;14.63;3.50;;;13.20;99.90;;;;;;5077686;28;20468;-79
2022/10/30 05:57:27;;;;;;;18.43;4.50;;;13.20;99.90;;;;;;5094480;28;20197;-80
2022/10/30 05:59:53;;;;;;;8.73;3.70;;;13.10;99.90;;;;;;5094264;28;20277;-80
2022/10/30 06:02:19;;;;;;;21.63;4.00;;;13.10;99.90;;;;;;5111524;28;20550;-81
2022/10/30 06:04:45;;;;;;;24.53;3.90;;;13.00;99.90;;;;;;5094141;28;20181;-80
2022/10/30 06:07:11;;;;;;;13.73;4.40;;;13.10;99.90;;;;;;5112369;28;20431;-80
2022/10/30 06:09:36;;;;;;;12.30;3.60;;;13.10;99.90;;;;;;5093968;28;20711;-79
2022/10/30 06:12:02;;;;;;;15.00;4.30;;;13.10;99.90;;;;;;5112358;28;20563;-76
2022/10/30 06:14:28;;;;;;;18.20;4.03;;;13.10;99.90;;;;;;5093978;28;20553;-76
2022/10/30 06:16:53;;;;;;;9.67;3.20;;;13.10;99.90;;;;;;5112118;28;20449;-75
2022/10/30 06:19:19;;;;;;;12.73;3.60;;;13.10;99.90;;;;;;5112387;28;20174;-75
2022/10/30 06:21:45;;;;;;;11.30;3.10;;;13.10;99.90;;;;;;5112356;28;20185;-76
2022/10/30 06:24:11;;;;;;;15.07;4.37;;;13.00;99.90;;;;;;5112210;28;20181;-76
2022/10/30 06:26:36;;;;;;;10.57;3.97;;;12.90;99.90;;;;;;5094098;28;20447;-76
2022/10/30 06:29:02;;;;;;;18.50;4.80;;;12.90;99.90;;;;;;5113248;28;20265;-76
2022/10/30 06:31:28;;;;;;;12.17;4.63;;;12.70;99.90;;;;;;5093846;28;20888;-80
2022/10/30 06:33:53;;;;;;;18.27;3.77;;;12.90;99.90;;;;;;5077448;28;20518;-81
2022/10/30 06:36:19;;;;;;;11.60;4.27;;;13.00;99.90;;;;;;5079776;28;20193;-81
2022/10/30 06:38:45;;;;;;;12.40;3.23;;;13.00;99.90;;;;;;5094042;28;20178;-80
2022/10/30 06:41:10;;;;;;;11.33;3.40;;;13.10;99.90;;;;;;5093892;28;20189;-80
2022/10/30 06:43:36;;;;;;;13.40;3.93;;;13.20;99.90;;;;;;5093816;28;20200;-81
2022/10/30 06:46:01;;;;;;;13.47;3.37;;;13.30;99.90;;;;;;5093631;28;20181;-81
2022/10/30 06:48:27;;;;;;;11.43;3.47;;;13.40;99.90;;;;;;5093815;28;20563;-80
2022/10/30 06:50:57;;;;;;;13.60;4.10;;;13.50;99.90;;;;;;5059900;28;20686;-81
2022/10/30 06:53:23;;;;;;;14.80;3.20;;;13.50;99.90;;;;;;5093611;28;20667;-81
2022/10/30 06:56:01;;;;;;;9.70;3.10;;;13.50;99.90;;;;;;5093478;28;20464;-81
2022/10/30 06:58:29;;;;;;;4.80;3.43;;;13.70;99.90;;;;;;5093275;28;20427;-81
2022/10/30 07:00:55;;;;;;;11.80;4.20;;;13.80;99.90;;;;;;5111536;28;20459;-81
2022/10/30 07:03:21;;;;;;;13.20;6.67;;;13.80;99.90;;;;;;5093203;28;20492;-81
2022/10/30 07:05:47;;;;;;;12.80;5.50;;;13.90;99.90;;;;;;5076224;28;20416;-81
2022/10/30 07:08:12;;;;;;;20.97;4.60;;;14.00;99.90;;;;;;5111505;28;20209;-81
2022/10/30 07:10:38;;;;;;;12.00;3.83;;;14.00;99.90;;;;;;5093040;28;20454;-81
2022/10/30 07:13:04;;;;;;;15.47;3.67;;;14.20;99.90;;;;;;5093365;28;20473;-81
2022/10/30 07:15:30;;;;;;;10.57;2.97;;;14.40;99.90;;;;;;5076020;28;20186;-80
2022/10/30 07:18:01;;;;;;;17.50;3.47;;;14.40;99.90;;;;;;5093249;28;20202;-81
2022/10/30 07:20:29;;;;;;;13.17;3.23;;;14.50;99.90;;;;;;5076500;28;20187;-81
2022/10/30 07:22:55;;;;;;;12.73;4.00;;;14.80;99.90;;;;;;5093400;28;20424;-81
2022/10/30 07:25:23;;;;;;;8.00;3.10;;;14.80;99.90;;;;;;5111626;28;20420;-80
2022/10/30 07:27:51;;;;;;;24.17;4.30;;;14.90;99.90;;;;;;5092841;28;20198;-80
2022/10/30 07:30:19;;;;;;;16.33;4.40;;;15.00;99.90;;;;;;5092859;28;20476;-81
2022/10/30 07:32:45;;;;;;;10.80;3.80;;;15.30;99.90;;;;;;5111585;28;20416;-80
2022/10/30 07:35:13;;;;;;;11.80;3.70;;;15.40;99.90;;;;;;5093881;28;20412;-81
2022/10/30 07:37:39;;;;;;;9.23;3.00;;;15.50;99.90;;;;;;5076550;28;20445;-81
2022/10/30 07:40:06;;;;;;;13.83;3.87;;;15.60;99.90;;;;;;5076580;28;20467;-81
2022/10/30 07:42:32;;;;;;;13.63;4.13;;;15.70;99.90;;;;;;5093392;28;20420;-81
2022/10/30 07:45:01;;;;;;;9.87;3.83;;;15.80;99.90;;;;;;5111656;28;20422;-80
2022/10/30 07:47:27;;;;;;;17.30;3.50;;;16.20;99.90;;;;;;5076202;28;20497;-81
2022/10/30 07:49:52;;;;;;;14.40;3.27;;;16.20;99.90;;;;;;5077841;28;20423;-80
2022/10/30 07:52:18;;;;;;;17.23;4.30;;;16.20;99.90;;;;;;5059189;28;20217;-81
2022/10/30 07:54:43;;;;;;;7.77;4.10;;;16.30;99.90;;;;;;5075713;28;20897;-81
2022/10/30 07:57:09;;;;;;;17.83;4.07;;;16.40;99.90;;;;;;5092616;28;20203;-81
2022/10/30 07:59:34;;;;;;;22.90;5.00;;;16.60;99.90;;;;;;5092210;28;20192;-81
2022/10/30 08:02:00;;;;;;;10.70;4.80;;;16.60;99.90;;;;;;5092185;28;20217;-81
2022/10/30 08:04:26;;;;;;;16.50;6.27;;;16.70;99.90;;;;;;5058966;28;20812;-80
2022/10/30 08:06:52;;;;;;;13.63;5.10;;;16.70;99.90;;;;;;5075892;28;20208;-80
2022/10/30 08:09:18;;;;;;;10.47;4.17;;;16.80;99.90;;;;;;5075373;28;20205;-81
2022/10/30 08:11:43;;;;;;;10.67;4.70;;;16.80;99.90;;;;;;5075463;28;20469;-81
2022/10/30 08:14:09;;;;;;;10.73;5.00;;;16.90;99.90;;;;;;5092364;28;20194;-80
2022/10/30 08:16:35;;;;;;;9.07;4.73;;;17.10;99.90;;;;;;5092389;28;20542;-80
2022/10/30 08:19:00;;;;;;;23.03;4.30;;;17.20;99.90;;;;;;5075742;28;20191;-81
2022/10/30 08:21:26;;;;;;;9.60;3.37;;;17.30;99.90;;;;;;5075708;28;20185;-81
2022/10/30 08:23:52;;;;;;;15.80;4.63;;;17.50;99.90;;;;;;5112094;28;20672;-81
2022/10/30 08:26:17;;;;;;;17.90;6.03;;;17.60;99.90;;;;;;5076931;28;20204;-80
2022/10/30 08:28:43;;;;;;;14.27;6.63;;;17.80;99.90;;;;;;5076347;28;20192;-81
2022/10/30 08:31:08;;;;;;;18.37;5.73;;;18.10;99.90;;;;;;5058349;28;20208;-80
2022/10/30 08:33:34;;;;;;;14.60;5.27;;;18.50;99.90;;;;;;5111338;28;20188;-81
2022/10/30 08:36:00;;;;;;;16.10;4.73;;;19.10;99.90;;;;;;5111819;28;20658;-81
2022/10/30 08:38:27;;;;;;;9.20;4.20;;;19.80;99.90;;;;;;5092045;28;20181;-81
2022/10/30 08:40:53;;;;;;;12.53;3.63;;;20.50;99.90;;;;;;5092049;28;20859;-80
2022/10/30 08:43:19;;;;;;;15.90;3.87;;;21.60;99.90;;;;;;5075356;28;20430;-80
2022/10/30 08:45:45;;;;;;;15.57;3.53;;;22.60;97.30;;;;;;5092529;28;20428;-81
2022/10/30 08:48:14;;;;;;;12.73;3.80;;;23.30;94.50;;;;;;5111345;28;21007;-81
2022/10/30 08:50:40;;;;;;;15.13;3.57;;;23.80;93.70;;;;;;5096752;28;20214;-80
2022/10/30 08:53:08;;;;;;;14.33;3.73;;;24.30;91.90;;;;;;5095328;28;20419;-81
2022/10/30 08:55:34;;;;;;;12.47;3.40;;;24.40;91.10;;;;;;5093582;28;20419;-80
2022/10/30 08:58:00;;;;;;;15.63;4.83;;;24.40;91.30;;;;;;5093489;28;20440;-78
2022/10/30 09:00:27;;;;;;;15.30;4.03;;;24.50;90.50;;;;;;5112341;28;20763;-77
2022/10/30 09:02:53;;;;;;;15.40;3.73;;;24.50;89.50;;;;;;5093628;28;20864;-77
2022/10/30 09:05:19;;;;;;;12.60;4.23;;;24.50;89.80;;;;;;5112369;28;20415;-77
2022/10/30 09:07:45;;;;;;;13.53;4.20;;;24.50;90.00;;;;;;5112052;28;20476;-76
2022/10/30 09:10:12;;;;;;;17.90;3.93;;;24.90;89.20;;;;;;5112331;28;20410;-77
2022/10/30 09:12:38;;;;;;;15.87;4.40;;;25.10;87.00;;;;;;5093715;28;20974;-77
2022/10/30 09:15:04;;;;;;;16.27;4.33;;;25.20;87.80;;;;;;5110919;28;20515;-81
2022/10/30 09:17:30;;;;;;;9.87;3.73;;;24.90;86.20;;;;;;5057861;28;20458;-81
2022/10/30 09:19:55;;;;;;;7.30;3.30;;;25.10;85.90;;;;;;5090885;28;20419;-82
2022/10/30 09:22:22;;;;;;;15.13;4.47;;;25.70;86.80;;;;;;5074033;28;20664;-81
2022/10/30 09:24:47;;;;;;;18.57;3.50;;;26.10;83.30;;;;;;5109310;28;20263;-82
2022/10/30 09:27:13;;;;;;;11.50;3.43;;;26.30;80.40;;;;;;5074330;28;20576;-82
2022/10/30 09:29:39;;;;;;;7.70;3.20;;;26.30;79.70;;;;;;5091014;28;20177;-83
2022/10/30 09:32:08;;;;;;;15.07;3.90;;;26.30;80.40;;;;;;5074698;28;20658;-82
2022/10/30 09:34:35;;;;;;;8.90;3.40;;;26.30;81.00;;;;;;5074985;28;20185;-82
2022/10/30 09:37:00;;;;;;;11.57;4.77;;;26.40;81.40;;;;;;5091492;28;20439;-84
2022/10/30 09:39:28;;;;;;;26.00;4.37;;;26.60;80.50;;;;;;5077139;28;20792;-82
2022/10/30 09:42:37;;;;;;;17.83;4.83;;;26.90;80.70;;;;;;5113149;28;20181;-82
2022/10/30 09:45:03;;;;;;;10.87;3.73;;;27.10;78.50;;;;;;5083667;28;20522;-82
2022/10/30 09:48:00;;;;;;;11.80;4.70;;;27.50;78.50;;;;;;5095075;28;20446;-83
2022/10/30 09:50:38;;;;;;;10.90;4.43;;;27.50;77.90;;;;;;5112477;28;20251;-83
2022/10/30 09:53:13;;;;;;;10.50;3.83;;;27.60;77.80;;;;;;5113518;28;20399;-83
2022/10/30 09:55:59;;;;;;;9.30;4.07;;;27.60;76.20;;;;;;5093100;28;20415;-83
2022/10/30 09:58:45;;;;;;;10.60;4.20;;;27.80;77.00;;;;;;5094522;28;20477;-83
2022/10/30 10:02:01;;;;;;;10.73;3.67;;;28.00;75.90;;;;;;5083047;28;20431;-83
2022/10/30 10:04:37;;;;;;;12.40;3.70;;;28.40;75.80;;;;;;5065648;28;20439;-82
2022/10/30 10:07:19;;;;;;;9.37;4.43;;;28.80;73.80;;;;;;5094177;28;20974;-84
2022/10/30 10:09:46;;;;;;;16.40;4.20;;;28.90;72.50;;;;;;5094258;28;20457;-82
2022/10/30 10:12:18;;;;;;;9.53;4.90;;;29.00;73.00;;;;;;5094643;28;20862;-83
2022/10/30 10:14:46;;;;;;;9.43;4.40;;;29.00;72.60;;;;;;5094052;28;20423;-83
2022/10/30 10:17:24;;;;;;;12.93;4.40;;;29.10;72.80;;;;;;5060985;28;20536;-83
2022/10/30 10:20:01;;;;;;;16.03;4.33;;;29.20;74.00;;;;;;5095645;28;20508;-84
2022/10/30 10:22:48;;;;;;;10.63;4.10;;;29.40;73.20;;;;;;5077210;28;20411;-82
2022/10/30 10:25:19;;;;;;;12.13;3.47;;;29.40;72.70;;;;;;5094608;28;20455;-81
2022/10/30 10:27:54;;;;;;;10.53;3.57;;;29.50;72.40;;;;;;5112764;28;20514;-81
2022/10/30 10:30:24;;;;;;;15.37;6.33;;;29.60;72.30;;;;;;5113066;28;20395;-82
2022/10/30 10:33:18;;;;;;;9.50;5.60;;;29.60;71.70;;;;;;5077025;28;20431;-83
2022/10/30 10:35:52;;;;;;;11.30;4.27;;;29.50;72.60;;;;;;5092917;28;20424;-81
2022/10/30 10:38:52;;;;;;;14.47;3.73;;;29.60;74.30;;;;;;5112974;28;20427;-79
2022/10/30 10:41:34;;;;;;;9.20;4.37;;;29.80;73.90;;;;;;5112707;28;20430;-80
2022/10/30 10:44:24;;;;;;;8.87;3.40;;;30.10;74.30;;;;;;5112344;28;20518;-80
2022/10/30 10:47:09;;;;;;;10.67;3.87;;;30.50;71.70;;;;;;5093746;28;20451;-79
2022/10/30 10:49:49;;;;;;;16.57;3.97;;;30.10;72.20;;;;;;5112029;28;20424;-78
2022/10/30 10:52:24;;;;;;;12.13;3.77;;;30.10;73.90;;;;;;5112277;28;20469;-77
2022/10/30 10:54:58;;;;;;;10.57;3.83;;;30.00;74.10;;;;;;5111636;28;20499;-79
2022/10/30 10:57:53;;;;;;;9.47;4.03;;;30.20;73.40;;;;;;5093415;28;20436;-79
2022/10/30 11:00:22;;;;;;;11.47;4.50;;;30.30;72.80;;;;;;5090398;28;20427;-79
2022/10/30 11:02:51;;;;;;;8.33;4.53;;;30.10;71.80;;;;;;5093372;28;20936;-79
2022/10/30 11:05:38;;;;;;;10.13;4.93;;;30.20;72.70;;;;;;5112096;28;20430;-79
2022/10/30 11:08:10;;;;;;;13.13;4.77;;;30.00;74.10;;;;;;5093463;28;20456;-79
2022/10/30 11:10:36;;;;;;;14.53;5.53;;;29.80;72.80;;;;;;5111382;28;20494;-79
2022/10/30 11:13:01;;;;;;;15.53;5.60;;;29.70;71.90;;;;;;5093113;28;20459;-79
2022/10/30 11:15:33;;;;;;;19.57;5.37;;;29.60;74.00;;;;;;5111313;28;20256;-79
2022/10/30 11:18:06;;;;;;;12.67;6.90;;;29.30;73.70;;;;;;5092825;28;20254;-79
2022/10/30 11:20:43;;;;;;;20.43;7.70;;;29.30;74.50;;;;;;5111076;28;20430;-79
2022/10/30 11:23:41;;;;;;;14.93;7.50;;;28.90;75.20;;;;;;5111086;28;20408;-79
2022/10/30 11:26:21;;;;;;;22.63;8.40;;;28.70;76.50;;;;;;5110927;28;20849;-79
2022/10/30 11:29:13;;;;;;;17.53;6.40;;;28.60;76.30;;;;;;5110737;28;20438;-79
2022/10/30 11:31:43;;;;;;;15.37;6.47;;;28.40;74.40;;;;;;5092755;28;20543;-79
2022/10/30 11:34:18;;;;;;;12.00;6.70;;;28.00;76.20;;;;;;5111222;28;20426;-79
2022/10/30 11:36:48;;;;;;;10.70;5.77;;;27.90;78.80;;;;;;5111063;28;20966;-79
2022/10/30 11:39:18;;;;;;;11.20;5.17;;;27.70;78.20;;;;;;5092424;28;20412;-79
2022/10/30 11:42:14;;;;;;;15.17;5.80;;;27.50;76.80;;;;;;5092589;28;20424;-79
2022/10/30 11:44:44;;;;;;;17.53;6.30;;;27.40;78.30;;;;;;5105490;28;20528;-80
2022/10/30 11:47:11;;;;;;;14.70;5.10;;;27.30;77.50;;;;;;5111780;28;20439;-78
2022/10/30 11:49:55;;;;;;;11.27;5.87;;;27.10;77.20;;;;;;5092468;28;20452;-78
2022/10/30 11:52:24;;;;;;;12.40;5.60;;;27.00;78.20;;;;;;5110475;28;20458;-78
2022/10/30 11:54:56;;;;;;;10.60;5.50;;;26.80;79.10;;;;;;5110212;28;20432;-76
2022/10/30 11:57:30;;;;;;;9.40;4.03;;;26.60;82.40;;;;;;5110573;28;20450;-78
2022/10/30 11:59:56;;;;;;;13.73;5.30;;;26.40;83.20;;;;;;5110240;28;20431;-78
2022/10/30 12:02:28;;;;;;;8.77;4.70;;;26.10;85.80;;;;;;5110127;28;20598;-80
2022/10/30 12:04:59;;;;;;;13.37;4.87;;;25.90;87.20;;;;;;5110381;28;20424;-77
2022/10/30 12:07:29;;;;;;;21.47;4.70;;;25.90;87.30;;;;;;5110315;28;20477;-76
2022/10/30 12:09:56;;;;;;;15.60;4.20;;;25.90;86.00;;;;;;5110096;28;20895;-75
2022/10/30 12:12:26;;;;;;;16.20;3.87;;;25.90;87.40;;;;;;5110305;28;20810;-77
2022/10/30 12:14:53;;;;;;;15.17;3.87;;;26.00;86.50;;;;;;5110439;28;20789;-75
2022/10/30 12:17:20;;;;;;;16.20;3.80;;;26.10;87.30;;;;;;5091927;28;20546;-75
2022/10/30 12:19:49;;;;;;;17.47;4.20;;;26.20;87.30;;;;;;5092081;28;21017;-77
2022/10/30 12:22:30;;;;;;;10.63;3.93;;;26.40;85.90;;;;;;5110458;28;20509;-80
2022/10/30 12:24:58;;;;;;;8.17;3.63;;;26.20;86.90;;;;;;5110421;28;20423;-75
2022/10/30 12:27:24;;;;;;;10.00;4.17;;;26.10;86.10;;;;;;5110361;28;20448;-77
2022/10/30 12:30:11;;;;;;;10.13;4.50;;;25.90;86.30;;;;;;5091766;28;20435;-76
2022/10/30 12:32:46;;;;;;;14.00;4.03;;;25.70;87.00;;;;;;5110170;28;20893;-75
2022/10/30 12:35:20;;;;;;;7.60;3.70;;;25.60;87.30;;;;;;5110266;28;20562;-78
2022/10/30 12:37:51;;;;;;;11.70;4.37;;;25.50;87.60;;;;;;5110795;28;20455;-77
2022/10/30 12:40:34;;;;;;;11.57;3.70;;;25.50;89.30;;;;;;5076337;28;20517;-79
2022/10/30 12:43:17;;;;;;;8.47;3.53;;;25.20;88.20;;;;;;5109972;28;20952;-78
2022/10/30 12:45:46;;;;;;;10.13;3.80;;;24.90;87.70;;;;;;5109693;28;20414;-78
2022/10/30 12:48:36;;;;;;;9.77;3.67;;;24.90;89.50;;;;;;5109241;28;20450;-79
2022/10/30 12:51:31;;;;;;;7.40;3.90;;;24.80;90.00;;;;;;5109466;28;20450;-78